sensor_id;sensor_type;location;lat;lon;timestamp;temperature;humidity
59977;DHT22;45837;51.076;3.578;2023-12-29T00:01:51;20.50;58.80
59977;DHT22;45837;51.076;3.578;2023-12-29T00:04:17;20.50;58.90
59977;DHT22;45837;51.076;3.578;2023-12-29T00:06:43;20.40;58.80
59977;DHT22;45837;51.076;3.578;2023-12-29T00:09:09;20.40;58.90
59977;DHT22;45837;51.076;3.578;2023-12-29T00:11:35;20.40;58.90
59977;DHT22;45837;51.076;3.578;2023-12-29T00:14:01;20.40;58.90
59977;DHT22;45837;51.076;3.578;2023-12-29T00:16:30;20.30;58.90
59977;DHT22;45837;51.076;3.578;2023-12-29T00:18:55;20.30;58.80
59977;DHT22;45837;51.076;3.578;2023-12-29T00:21:21;20.30;58.90
59977;DHT22;45837;51.076;3.578;2023-12-29T00:23:47;20.30;58.90
59977;DHT22;45837;51.076;3.578;2023-12-29T00:26:17;20.30;58.90
59977;DHT22;45837;51.076;3.578;2023-12-29T00:28:44;20.30;59.00
59977;DHT22;45837;51.076;3.578;2023-12-29T00:31:14;20.30;58.90
59977;DHT22;45837;51.076;3.578;2023-12-29T00:33:42;20.30;58.80
59977;DHT22;45837;51.076;3.578;2023-12-29T00:36:08;20.30;58.80
59977;DHT22;45837;51.076;3.578;2023-12-29T00:38:34;20.30;58.90
59977;DHT22;45837;51.076;3.578;2023-12-29T00:41:00;20.20;59.00
59977;DHT22;45837;51.076;3.578;2023-12-29T00:43:26;20.20;58.90
59977;DHT22;45837;51.076;3.578;2023-12-29T00:45:53;20.20;59.00
59977;DHT22;45837;51.076;3.578;2023-12-29T00:48:18;20.20;59.00
59977;DHT22;45837;51.076;3.578;2023-12-29T00:50:45;20.20;58.90
59977;DHT22;45837;51.076;3.578;2023-12-29T00:53:11;20.20;58.90
59977;DHT22;45837;51.076;3.578;2023-12-29T00:55:37;20.20;58.90
59977;DHT22;45837;51.076;3.578;2023-12-29T00:58:03;20.20;59.00
59977;DHT22;45837;51.076;3.578;2023-12-29T01:00:29;20.10;58.70
59977;DHT22;45837;51.076;3.578;2023-12-29T01:02:54;20.10;58.80
59977;DHT22;45837;51.076;3.578;2023-12-29T01:05:20;20.10;58.90
59977;DHT22;45837;51.076;3.578;2023-12-29T01:07:47;20.10;58.70
59977;DHT22;45837;51.076;3.578;2023-12-29T01:10:13;20.10;58.90
59977;DHT22;45837;51.076;3.578;2023-12-29T01:12:39;20.10;58.90
59977;DHT22;45837;51.076;3.578;2023-12-29T01:15:05;20.10;58.70
59977;DHT22;45837;51.076;3.578;2023-12-29T01:17:31;20.10;58.70
59977;DHT22;45837;51.076;3.578;2023-12-29T01:19:57;20.10;58.80
59977;DHT22;45837;51.076;3.578;2023-12-29T01:22:23;20.10;58.80
59977;DHT22;45837;51.076;3.578;2023-12-29T01:24:49;20.10;58.70
59977;DHT22;45837;51.076;3.578;2023-12-29T01:27:15;20.10;58.70
59977;DHT22;45837;51.076;3.578;2023-12-29T01:29:40;20.10;58.80
59977;DHT22;45837;51.076;3.578;2023-12-29T01:32:06;20.00;58.60
59977;DHT22;45837;51.076;3.578;2023-12-29T01:34:34;20.10;58.50
59977;DHT22;45837;51.076;3.578;2023-12-29T01:37:02;20.00;58.70
59977;DHT22;45837;51.076;3.578;2023-12-29T01:39:28;20.20;58.60
59977;DHT22;45837;51.076;3.578;2023-12-29T01:41:57;20.00;58.80
59977;DHT22;45837;51.076;3.578;2023-12-29T01:44:23;20.00;58.80
59977;DHT22;45837;51.076;3.578;2023-12-29T01:46:51;20.00;58.50
59977;DHT22;45837;51.076;3.578;2023-12-29T01:49:19;20.00;58.50
59977;DHT22;45837;51.076;3.578;2023-12-29T01:51:50;20.00;58.50
59977;DHT22;45837;51.076;3.578;2023-12-29T01:54:18;20.00;58.50
59977;DHT22;45837;51.076;3.578;2023-12-29T01:56:45;19.90;58.50
59977;DHT22;45837;51.076;3.578;2023-12-29T01:59:11;19.90;58.60
59977;DHT22;45837;51.076;3.578;2023-12-29T02:01:38;20.00;58.90
59977;DHT22;45837;51.076;3.578;2023-12-29T02:04:06;19.90;58.60
59977;DHT22;45837;51.076;3.578;2023-12-29T02:06:34;19.90;58.60
59977;DHT22;45837;51.076;3.578;2023-12-29T02:09:02;19.90;58.60
59977;DHT22;45837;51.076;3.578;2023-12-29T02:11:29;19.90;58.50
59977;DHT22;45837;51.076;3.578;2023-12-29T02:13:56;19.90;58.90
59977;DHT22;45837;51.076;3.578;2023-12-29T02:16:40;19.90;58.60
59977;DHT22;45837;51.076;3.578;2023-12-29T02:21:54;19.80;58.50
59977;DHT22;45837;51.076;3.578;2023-12-29T02:24:19;19.80;58.80
59977;DHT22;45837;51.076;3.578;2023-12-29T02:26:49;19.80;58.90
59977;DHT22;45837;51.076;3.578;2023-12-29T02:29:19;19.80;58.60
59977;DHT22;45837;51.076;3.578;2023-12-29T02:31:51;19.90;58.60
59977;DHT22;45837;51.076;3.578;2023-12-29T02:34:19;19.80;58.60
59977;DHT22;45837;51.076;3.578;2023-12-29T02:36:48;19.80;58.60
59977;DHT22;45837;51.076;3.578;2023-12-29T02:39:16;19.80;58.50
59977;DHT22;45837;51.076;3.578;2023-12-29T02:41:42;19.80;58.80
59977;DHT22;45837;51.076;3.578;2023-12-29T02:44:09;19.80;58.70
59977;DHT22;45837;51.076;3.578;2023-12-29T02:46:35;19.80;58.50
59977;DHT22;45837;51.076;3.578;2023-12-29T02:49:01;19.80;58.50
59977;DHT22;45837;51.076;3.578;2023-12-29T02:51:27;19.80;58.80
59977;DHT22;45837;51.076;3.578;2023-12-29T02:53:53;19.80;58.80
59977;DHT22;45837;51.076;3.578;2023-12-29T02:56:18;19.80;58.70
59977;DHT22;45837;51.076;3.578;2023-12-29T02:58:44;19.80;58.70
59977;DHT22;45837;51.076;3.578;2023-12-29T03:01:11;19.80;58.70
59977;DHT22;45837;51.076;3.578;2023-12-29T03:03:37;19.80;58.60
59977;DHT22;45837;51.076;3.578;2023-12-29T03:06:06;19.80;58.60
59977;DHT22;45837;51.076;3.578;2023-12-29T03:08:32;19.70;58.60
59977;DHT22;45837;51.076;3.578;2023-12-29T03:10:58;19.70;58.50
59977;DHT22;45837;51.076;3.578;2023-12-29T03:13:24;19.70;58.60
59977;DHT22;45837;51.076;3.578;2023-12-29T03:15:50;19.70;58.60
59977;DHT22;45837;51.076;3.578;2023-12-29T03:18:16;19.70;58.70
59977;DHT22;45837;51.076;3.578;2023-12-29T03:20:42;19.70;58.60
59977;DHT22;45837;51.076;3.578;2023-12-29T03:23:08;19.70;58.60
59977;DHT22;45837;51.076;3.578;2023-12-29T03:25:34;19.70;58.80
59977;DHT22;45837;51.076;3.578;2023-12-29T03:28:00;19.70;58.60
59977;DHT22;45837;51.076;3.578;2023-12-29T03:30:26;19.70;58.70
59977;DHT22;45837;51.076;3.578;2023-12-29T03:32:52;19.70;58.60
59977;DHT22;45837;51.076;3.578;2023-12-29T03:35:18;19.70;58.70
59977;DHT22;45837;51.076;3.578;2023-12-29T03:37:44;19.70;58.70
59977;DHT22;45837;51.076;3.578;2023-12-29T03:40:10;19.60;58.70
59977;DHT22;45837;51.076;3.578;2023-12-29T03:42:37;19.70;58.60
59977;DHT22;45837;51.076;3.578;2023-12-29T03:45:04;19.70;58.50
59977;DHT22;45837;51.076;3.578;2023-12-29T03:47:30;19.60;58.40
59977;DHT22;45837;51.076;3.578;2023-12-29T03:49:57;19.70;59.20
59977;DHT22;45837;51.076;3.578;2023-12-29T03:52:23;19.70;58.70
59977;DHT22;45837;51.076;3.578;2023-12-29T03:54:49;19.60;58.60
59977;DHT22;45837;51.076;3.578;2023-12-29T03:57:15;19.60;58.70
59977;DHT22;45837;51.076;3.578;2023-12-29T03:59:41;19.60;58.70
59977;DHT22;45837;51.076;3.578;2023-12-29T04:02:07;19.60;58.60
59977;DHT22;45837;51.076;3.578;2023-12-29T04:04:36;19.60;58.60
59977;DHT22;45837;51.076;3.578;2023-12-29T04:07:03;19.60;58.40
59977;DHT22;45837;51.076;3.578;2023-12-29T04:09:29;19.60;58.60
59977;DHT22;45837;51.076;3.578;2023-12-29T04:11:55;19.60;58.50
59977;DHT22;45837;51.076;3.578;2023-12-29T04:14:21;19.60;58.60
59977;DHT22;45837;51.076;3.578;2023-12-29T04:16:48;19.60;58.60
59977;DHT22;45837;51.076;3.578;2023-12-29T04:19:14;19.60;58.40
59977;DHT22;45837;51.076;3.578;2023-12-29T04:21:39;19.60;58.60
59977;DHT22;45837;51.076;3.578;2023-12-29T04:24:05;19.60;58.60
59977;DHT22;45837;51.076;3.578;2023-12-29T04:26:38;19.60;58.40
59977;DHT22;45837;51.076;3.578;2023-12-29T04:29:04;19.60;58.40
59977;DHT22;45837;51.076;3.578;2023-12-29T04:31:30;19.60;58.70
59977;DHT22;45837;51.076;3.578;2023-12-29T04:33:56;19.60;58.40
59977;DHT22;45837;51.076;3.578;2023-12-29T04:36:22;19.60;58.60
59977;DHT22;45837;51.076;3.578;2023-12-29T04:38:48;19.50;58.50
59977;DHT22;45837;51.076;3.578;2023-12-29T04:41:14;19.50;58.30
59977;DHT22;45837;51.076;3.578;2023-12-29T04:43:41;19.50;58.40
59977;DHT22;45837;51.076;3.578;2023-12-29T04:46:07;19.50;58.40
59977;DHT22;45837;51.076;3.578;2023-12-29T04:48:33;19.50;58.40
59977;DHT22;45837;51.076;3.578;2023-12-29T04:50:59;19.50;58.40
59977;DHT22;45837;51.076;3.578;2023-12-29T04:53:25;19.50;58.50
59977;DHT22;45837;51.076;3.578;2023-12-29T04:55:51;18.90;58.20
59977;DHT22;45837;51.076;3.578;2023-12-29T04:58:17;19.50;58.40
59977;DHT22;45837;51.076;3.578;2023-12-29T05:00:42;19.40;58.60
59977;DHT22;45837;51.076;3.578;2023-12-29T05:03:08;19.50;58.50
59977;DHT22;45837;51.076;3.578;2023-12-29T05:05:34;19.50;58.60
59977;DHT22;45837;51.076;3.578;2023-12-29T05:08:00;19.50;58.70
59977;DHT22;45837;51.076;3.578;2023-12-29T05:10:26;19.50;58.60
59977;DHT22;45837;51.076;3.578;2023-12-29T05:12:52;19.50;58.60
59977;DHT22;45837;51.076;3.578;2023-12-29T05:15:17;19.40;58.50
59977;DHT22;45837;51.076;3.578;2023-12-29T05:17:43;19.50;58.40
59977;DHT22;45837;51.076;3.578;2023-12-29T05:20:09;19.40;58.50
59977;DHT22;45837;51.076;3.578;2023-12-29T05:22:35;19.40;58.30
59977;DHT22;45837;51.076;3.578;2023-12-29T05:25:02;19.40;58.50
59977;DHT22;45837;51.076;3.578;2023-12-29T05:27:28;19.40;58.30
59977;DHT22;45837;51.076;3.578;2023-12-29T05:29:54;19.40;58.50
59977;DHT22;45837;51.076;3.578;2023-12-29T05:32:20;19.40;58.60
59977;DHT22;45837;51.076;3.578;2023-12-29T05:34:46;19.40;58.50
59977;DHT22;45837;51.076;3.578;2023-12-29T05:37:12;18.60;58.30
59977;DHT22;45837;51.076;3.578;2023-12-29T05:39:37;19.40;58.60
59977;DHT22;45837;51.076;3.578;2023-12-29T05:42:06;18.70;58.00
59977;DHT22;45837;51.076;3.578;2023-12-29T05:44:35;19.40;58.50
59977;DHT22;45837;51.076;3.578;2023-12-29T05:47:01;19.40;58.30
59977;DHT22;45837;51.076;3.578;2023-12-29T05:49:27;19.40;58.50
59977;DHT22;45837;51.076;3.578;2023-12-29T05:51:53;19.40;58.50
59977;DHT22;45837;51.076;3.578;2023-12-29T05:54:19;19.40;58.50
59977;DHT22;45837;51.076;3.578;2023-12-29T05:56:44;19.30;58.70
59977;DHT22;45837;51.076;3.578;2023-12-29T05:59:10;19.40;58.50
59977;DHT22;45837;51.076;3.578;2023-12-29T06:01:36;19.40;58.70
59977;DHT22;45837;51.076;3.578;2023-12-29T06:04:02;19.40;58.60
59977;DHT22;45837;51.076;3.578;2023-12-29T06:06:28;19.40;58.40
59977;DHT22;45837;51.076;3.578;2023-12-29T06:08:54;19.40;58.50
59977;DHT22;45837;51.076;3.578;2023-12-29T06:11:20;19.10;58.40
59977;DHT22;45837;51.076;3.578;2023-12-29T06:13:46;19.30;58.40
59977;DHT22;45837;51.076;3.578;2023-12-29T06:16:22;19.40;58.60
59977;DHT22;45837;51.076;3.578;2023-12-29T06:18:49;19.40;58.50
59977;DHT22;45837;51.076;3.578;2023-12-29T06:21:14;19.30;58.60
59977;DHT22;45837;51.076;3.578;2023-12-29T06:23:40;19.30;58.40
59977;DHT22;45837;51.076;3.578;2023-12-29T06:26:17;19.30;58.50
59977;DHT22;45837;51.076;3.578;2023-12-29T06:28:44;19.30;58.20
59977;DHT22;45837;51.076;3.578;2023-12-29T06:31:10;19.30;58.30
59977;DHT22;45837;51.076;3.578;2023-12-29T06:33:36;19.30;58.20
59977;DHT22;45837;51.076;3.578;2023-12-29T06:36:02;19.20;58.40
59977;DHT22;45837;51.076;3.578;2023-12-29T06:38:28;19.30;58.60
59977;DHT22;45837;51.076;3.578;2023-12-29T06:40:54;19.30;58.50
59977;DHT22;45837;51.076;3.578;2023-12-29T06:43:20;19.30;58.40
59977;DHT22;45837;51.076;3.578;2023-12-29T06:45:47;19.10;58.30
59977;DHT22;45837;51.076;3.578;2023-12-29T06:48:13;19.20;58.40
59977;DHT22;45837;51.076;3.578;2023-12-29T06:50:38;19.30;58.40
59977;DHT22;45837;51.076;3.578;2023-12-29T06:53:04;19.30;58.50
59977;DHT22;45837;51.076;3.578;2023-12-29T06:55:31;19.20;58.40
59977;DHT22;45837;51.076;3.578;2023-12-29T06:57:56;19.30;58.50
59977;DHT22;45837;51.076;3.578;2023-12-29T07:00:22;19.30;58.40
59977;DHT22;45837;51.076;3.578;2023-12-29T07:02:48;19.30;58.40
59977;DHT22;45837;51.076;3.578;2023-12-29T07:05:14;19.20;58.50
59977;DHT22;45837;51.076;3.578;2023-12-29T07:07:40;18.30;58.10
59977;DHT22;45837;51.076;3.578;2023-12-29T07:10:06;19.10;58.30
59977;DHT22;45837;51.076;3.578;2023-12-29T07:12:32;19.20;58.30
59977;DHT22;45837;51.076;3.578;2023-12-29T07:14:58;19.20;58.40
59977;DHT22;45837;51.076;3.578;2023-12-29T07:17:24;19.20;58.40
59977;DHT22;45837;51.076;3.578;2023-12-29T07:19:50;19.20;58.70
59977;DHT22;45837;51.076;3.578;2023-12-29T07:22:16;19.20;58.60
59977;DHT22;45837;51.076;3.578;2023-12-29T07:24:42;19.20;58.40
59977;DHT22;45837;51.076;3.578;2023-12-29T07:27:08;19.20;58.60
59977;DHT22;45837;51.076;3.578;2023-12-29T07:29:34;19.20;58.50
59977;DHT22;45837;51.076;3.578;2023-12-29T07:31:59;19.20;58.60
59977;DHT22;45837;51.076;3.578;2023-12-29T07:34:25;19.20;58.40
59977;DHT22;45837;51.076;3.578;2023-12-29T07:36:52;19.20;58.30
59977;DHT22;45837;51.076;3.578;2023-12-29T07:39:19;19.20;58.30
59977;DHT22;45837;51.076;3.578;2023-12-29T07:41:45;19.10;58.30
59977;DHT22;45837;51.076;3.578;2023-12-29T07:44:11;19.10;58.40
59977;DHT22;45837;51.076;3.578;2023-12-29T07:46:40;19.10;58.20
59977;DHT22;45837;51.076;3.578;2023-12-29T07:49:06;19.20;58.50
59977;DHT22;45837;51.076;3.578;2023-12-29T07:51:32;19.10;58.40
59977;DHT22;45837;51.076;3.578;2023-12-29T07:53:58;19.10;58.30
59977;DHT22;45837;51.076;3.578;2023-12-29T07:56:27;19.10;58.20
59977;DHT22;45837;51.076;3.578;2023-12-29T07:58:53;19.10;58.10
59977;DHT22;45837;51.076;3.578;2023-12-29T08:01:19;19.00;58.30
59977;DHT22;45837;51.076;3.578;2023-12-29T08:03:44;19.10;58.60
59977;DHT22;45837;51.076;3.578;2023-12-29T08:06:11;19.10;58.40
59977;DHT22;45837;51.076;3.578;2023-12-29T08:08:38;19.10;58.50
59977;DHT22;45837;51.076;3.578;2023-12-29T08:11:04;18.30;58.60
59977;DHT22;45837;51.076;3.578;2023-12-29T08:13:29;19.10;59.40
59977;DHT22;45837;51.076;3.578;2023-12-29T08:15:55;19.10;59.90
59977;DHT22;45837;51.076;3.578;2023-12-29T08:18:21;19.10;60.10
59977;DHT22;45837;51.076;3.578;2023-12-29T08:20:47;19.10;60.60
59977;DHT22;45837;51.076;3.578;2023-12-29T08:23:13;19.20;60.90
59977;DHT22;45837;51.076;3.578;2023-12-29T08:25:39;19.20;61.00
59977;DHT22;45837;51.076;3.578;2023-12-29T08:28:05;19.20;60.80
59977;DHT22;45837;51.076;3.578;2023-12-29T08:30:34;19.30;60.80
59977;DHT22;45837;51.076;3.578;2023-12-29T08:33:01;19.40;60.90
59977;DHT22;45837;51.076;3.578;2023-12-29T08:35:27;19.50;61.20
59977;DHT22;45837;51.076;3.578;2023-12-29T08:37:53;19.50;61.30
59977;DHT22;45837;51.076;3.578;2023-12-29T08:40:19;19.60;61.30
59977;DHT22;45837;51.076;3.578;2023-12-29T08:42:45;19.80;61.30
59977;DHT22;45837;51.076;3.578;2023-12-29T08:45:11;19.90;61.00
59977;DHT22;45837;51.076;3.578;2023-12-29T08:47:37;20.00;61.20
59977;DHT22;45837;51.076;3.578;2023-12-29T08:50:03;20.10;60.80
59977;DHT22;45837;51.076;3.578;2023-12-29T08:52:29;20.20;60.60
59977;DHT22;45837;51.076;3.578;2023-12-29T08:54:55;20.20;60.60
59977;DHT22;45837;51.076;3.578;2023-12-29T08:57:21;20.30;60.60
59977;DHT22;45837;51.076;3.578;2023-12-29T08:59:47;20.40;60.50
59977;DHT22;45837;51.076;3.578;2023-12-29T09:02:13;20.50;60.20
59977;DHT22;45837;51.076;3.578;2023-12-29T09:04:39;20.50;60.30
59977;DHT22;45837;51.076;3.578;2023-12-29T09:07:05;20.60;60.00
59977;DHT22;45837;51.076;3.578;2023-12-29T09:09:31;20.70;59.90
59977;DHT22;45837;51.076;3.578;2023-12-29T09:11:57;20.70;59.80
59977;DHT22;45837;51.076;3.578;2023-12-29T09:14:23;20.70;59.80
59977;DHT22;45837;51.076;3.578;2023-12-29T09:16:49;20.70;59.80
59977;DHT22;45837;51.076;3.578;2023-12-29T09:19:14;20.70;59.80
59977;DHT22;45837;51.076;3.578;2023-12-29T09:21:40;20.70;59.70
59977;DHT22;45837;51.076;3.578;2023-12-29T09:24:06;20.80;59.80
59977;DHT22;45837;51.076;3.578;2023-12-29T09:26:32;20.70;60.30
59977;DHT22;45837;51.076;3.578;2023-12-29T09:28:59;20.70;59.80
59977;DHT22;45837;51.076;3.578;2023-12-29T09:31:25;20.70;60.00
59977;DHT22;45837;51.076;3.578;2023-12-29T09:33:50;20.70;60.00
59977;DHT22;45837;51.076;3.578;2023-12-29T09:36:16;20.70;60.00
59977;DHT22;45837;51.076;3.578;2023-12-29T09:38:42;20.70;60.00
59977;DHT22;45837;51.076;3.578;2023-12-29T09:41:14;20.70;59.90
59977;DHT22;45837;51.076;3.578;2023-12-29T09:43:40;20.70;59.80
59977;DHT22;45837;51.076;3.578;2023-12-29T09:46:08;20.70;59.90
59977;DHT22;45837;51.076;3.578;2023-12-29T09:48:37;20.80;59.80
59977;DHT22;45837;51.076;3.578;2023-12-29T09:51:07;20.80;59.60
59977;DHT22;45837;51.076;3.578;2023-12-29T09:53:35;20.80;59.30
59977;DHT22;45837;51.076;3.578;2023-12-29T09:56:03;20.80;59.40
59977;DHT22;45837;51.076;3.578;2023-12-29T09:58:31;20.80;59.30
59977;DHT22;45837;51.076;3.578;2023-12-29T10:00:57;20.80;59.50
59977;DHT22;45837;51.076;3.578;2023-12-29T10:03:23;20.80;59.50
59977;DHT22;45837;51.076;3.578;2023-12-29T10:05:51;20.90;59.50
59977;DHT22;45837;51.076;3.578;2023-12-29T10:08:22;20.80;59.30
59977;DHT22;45837;51.076;3.578;2023-12-29T10:10:48;20.90;59.40
59977;DHT22;45837;51.076;3.578;2023-12-29T10:13:17;20.90;59.30
59977;DHT22;45837;51.076;3.578;2023-12-29T10:15:50;20.90;58.90
59977;DHT22;45837;51.076;3.578;2023-12-29T10:18:32;20.80;58.60
59977;DHT22;45837;51.076;3.578;2023-12-29T10:21:15;20.50;58.50
59977;DHT22;45837;51.076;3.578;2023-12-29T10:26:16;20.80;58.10
59977;DHT22;45837;51.076;3.578;2023-12-29T10:28:43;20.80;57.90
59977;DHT22;45837;51.076;3.578;2023-12-29T10:31:10;20.80;57.80
59977;DHT22;45837;51.076;3.578;2023-12-29T10:33:39;20.80;57.50
59977;DHT22;45837;51.076;3.578;2023-12-29T10:36:06;20.80;57.70
59977;DHT22;45837;51.076;3.578;2023-12-29T10:38:33;20.80;57.20
59977;DHT22;45837;51.076;3.578;2023-12-29T10:41:13;20.80;57.20
59977;DHT22;45837;51.076;3.578;2023-12-29T10:43:40;20.80;56.70
59977;DHT22;45837;51.076;3.578;2023-12-29T10:46:07;20.80;56.70
59977;DHT22;45837;51.076;3.578;2023-12-29T10:48:34;20.80;56.80
59977;DHT22;45837;51.076;3.578;2023-12-29T10:51:01;20.70;56.70
59977;DHT22;45837;51.076;3.578;2023-12-29T10:53:30;20.80;56.60
59977;DHT22;45837;51.076;3.578;2023-12-29T10:55:56;20.80;56.40
59977;DHT22;45837;51.076;3.578;2023-12-29T10:58:25;20.80;56.50
59977;DHT22;45837;51.076;3.578;2023-12-29T11:00:54;20.70;56.70
59977;DHT22;45837;51.076;3.578;2023-12-29T11:03:20;20.70;56.50
59977;DHT22;45837;51.076;3.578;2023-12-29T11:05:46;20.70;56.50
59977;DHT22;45837;51.076;3.578;2023-12-29T11:08:20;20.70;56.70
59977;DHT22;45837;51.076;3.578;2023-12-29T11:10:49;20.70;56.60
59977;DHT22;45837;51.076;3.578;2023-12-29T11:13:16;20.70;56.70
59977;DHT22;45837;51.076;3.578;2023-12-29T11:15:43;20.60;56.40
59977;DHT22;45837;51.076;3.578;2023-12-29T11:18:14;20.60;56.60
59977;DHT22;45837;51.076;3.578;2023-12-29T11:20:41;20.60;56.30
59977;DHT22;45837;51.076;3.578;2023-12-29T11:23:09;20.60;56.70
59977;DHT22;45837;51.076;3.578;2023-12-29T11:25:35;20.60;56.70
59977;DHT22;45837;51.076;3.578;2023-12-29T11:28:01;20.60;57.10
59977;DHT22;45837;51.076;3.578;2023-12-29T11:30:27;20.50;57.20
59977;DHT22;45837;51.076;3.578;2023-12-29T11:33:00;20.50;57.50
59977;DHT22;45837;51.076;3.578;2023-12-29T11:35:39;20.50;57.20
59977;DHT22;45837;51.076;3.578;2023-12-29T11:40:47;20.50;57.20
59977;DHT22;45837;51.076;3.578;2023-12-29T11:43:17;20.50;57.30
59977;DHT22;45837;51.076;3.578;2023-12-29T11:45:43;20.50;57.20
59977;DHT22;45837;51.076;3.578;2023-12-29T11:48:10;20.50;57.50
59977;DHT22;45837;51.076;3.578;2023-12-29T11:50:40;20.40;57.40
59977;DHT22;45837;51.076;3.578;2023-12-29T11:53:07;20.40;57.30
59977;DHT22;45837;51.076;3.578;2023-12-29T11:55:35;20.40;56.90
59977;DHT22;45837;51.076;3.578;2023-12-29T11:58:01;20.40;56.80
59977;DHT22;45837;51.076;3.578;2023-12-29T12:00:44;20.40;56.90
59977;DHT22;45837;51.076;3.578;2023-12-29T12:03:28;20.40;56.90
59977;DHT22;45837;51.076;3.578;2023-12-29T12:05:55;20.30;57.00
59977;DHT22;45837;51.076;3.578;2023-12-29T12:08:29;20.40;57.60
59977;DHT22;45837;51.076;3.578;2023-12-29T12:10:56;20.40;57.90
59977;DHT22;45837;51.076;3.578;2023-12-29T12:13:47;20.40;58.10
59977;DHT22;45837;51.076;3.578;2023-12-29T12:16:49;20.30;58.10
59977;DHT22;45837;51.076;3.578;2023-12-29T12:19:16;20.30;58.50
59977;DHT22;45837;51.076;3.578;2023-12-29T12:21:46;20.30;58.60
59977;DHT22;45837;51.076;3.578;2023-12-29T12:24:14;20.30;58.60
59977;DHT22;45837;51.076;3.578;2023-12-29T12:26:40;20.30;58.90
59977;DHT22;45837;51.076;3.578;2023-12-29T12:29:07;20.30;58.80
59977;DHT22;45837;51.076;3.578;2023-12-29T12:31:33;20.30;58.90
59977;DHT22;45837;51.076;3.578;2023-12-29T12:33:59;20.40;59.00
59977;DHT22;45837;51.076;3.578;2023-12-29T12:36:26;20.30;58.80
59977;DHT22;45837;51.076;3.578;2023-12-29T12:38:58;20.40;59.00
59977;DHT22;45837;51.076;3.578;2023-12-29T12:41:25;20.40;58.70
59977;DHT22;45837;51.076;3.578;2023-12-29T12:44:18;20.40;58.50
59977;DHT22;45837;51.076;3.578;2023-12-29T12:46:50;20.50;58.50
59977;DHT22;45837;51.076;3.578;2023-12-29T12:49:20;20.40;58.60
59977;DHT22;45837;51.076;3.578;2023-12-29T12:51:46;20.40;58.70
59977;DHT22;45837;51.076;3.578;2023-12-29T12:54:13;20.40;59.20
59977;DHT22;45837;51.076;3.578;2023-12-29T12:56:43;20.40;59.10
59977;DHT22;45837;51.076;3.578;2023-12-29T12:59:09;20.30;59.30
59977;DHT22;45837;51.076;3.578;2023-12-29T13:01:36;20.30;59.30
59977;DHT22;45837;51.076;3.578;2023-12-29T13:04:03;20.30;57.40
59977;DHT22;45837;51.076;3.578;2023-12-29T13:06:33;20.30;58.30
59977;DHT22;45837;51.076;3.578;2023-12-29T13:09:00;20.30;57.80
59977;DHT22;45837;51.076;3.578;2023-12-29T13:11:28;20.30;57.70
59977;DHT22;45837;51.076;3.578;2023-12-29T13:13:54;20.30;57.70
59977;DHT22;45837;51.076;3.578;2023-12-29T13:16:33;20.20;57.50
59977;DHT22;45837;51.076;3.578;2023-12-29T13:19:22;20.20;57.10
59977;DHT22;45837;51.076;3.578;2023-12-29T13:21:54;20.20;57.10
59977;DHT22;45837;51.076;3.578;2023-12-29T13:24:21;20.20;57.10
59977;DHT22;45837;51.076;3.578;2023-12-29T13:26:47;20.10;57.00
59977;DHT22;45837;51.076;3.578;2023-12-29T13:29:22;20.10;57.00
59977;DHT22;45837;51.076;3.578;2023-12-29T13:31:53;20.10;56.90
59977;DHT22;45837;51.076;3.578;2023-12-29T13:34:55;20.10;56.90
59977;DHT22;45837;51.076;3.578;2023-12-29T13:37:24;20.00;56.60
59977;DHT22;45837;51.076;3.578;2023-12-29T13:40:16;19.90;56.70
59977;DHT22;45837;51.076;3.578;2023-12-29T13:42:46;20.00;56.70
59977;DHT22;45837;51.076;3.578;2023-12-29T13:45:14;19.90;56.60
59977;DHT22;45837;51.076;3.578;2023-12-29T13:47:41;19.90;56.60
59977;DHT22;45837;51.076;3.578;2023-12-29T13:50:09;19.80;56.70
59977;DHT22;45837;51.076;3.578;2023-12-29T13:52:36;19.80;56.50
59977;DHT22;45837;51.076;3.578;2023-12-29T13:55:03;19.80;56.30
59977;DHT22;45837;51.076;3.578;2023-12-29T13:57:33;19.90;56.20
59977;DHT22;45837;51.076;3.578;2023-12-29T14:00:19;19.80;56.10
59977;DHT22;45837;51.076;3.578;2023-12-29T14:08:24;19.70;56.20
59977;DHT22;45837;51.076;3.578;2023-12-29T14:10:51;19.60;55.90
59977;DHT22;45837;51.076;3.578;2023-12-29T14:13:19;19.60;56.10
59977;DHT22;45837;51.076;3.578;2023-12-29T14:15:46;19.60;56.10
59977;DHT22;45837;51.076;3.578;2023-12-29T14:20:59;19.50;56.10
59977;DHT22;45837;51.076;3.578;2023-12-29T14:23:25;19.50;56.00
59977;DHT22;45837;51.076;3.578;2023-12-29T14:25:51;19.50;56.20
59977;DHT22;45837;51.076;3.578;2023-12-29T14:28:19;19.50;56.20
59977;DHT22;45837;51.076;3.578;2023-12-29T14:30:46;19.40;55.90
59977;DHT22;45837;51.076;3.578;2023-12-29T14:33:12;19.40;56.00
59977;DHT22;45837;51.076;3.578;2023-12-29T14:35:38;19.40;56.10
59977;DHT22;45837;51.076;3.578;2023-12-29T14:38:04;19.30;55.80
59977;DHT22;45837;51.076;3.578;2023-12-29T14:40:30;19.30;56.80
59977;DHT22;45837;51.076;3.578;2023-12-29T14:42:56;19.30;56.50
59977;DHT22;45837;51.076;3.578;2023-12-29T14:45:22;19.30;57.20
59977;DHT22;45837;51.076;3.578;2023-12-29T14:47:48;19.30;57.10
59977;DHT22;45837;51.076;3.578;2023-12-29T14:50:15;19.30;57.30
59977;DHT22;45837;51.076;3.578;2023-12-29T14:52:41;19.30;57.50
59977;DHT22;45837;51.076;3.578;2023-12-29T14:55:08;19.30;57.70
59977;DHT22;45837;51.076;3.578;2023-12-29T14:57:33;19.40;58.20
59977;DHT22;45837;51.076;3.578;2023-12-29T14:59:59;19.40;58.30
59977;DHT22;45837;51.076;3.578;2023-12-29T15:02:25;19.50;58.30
59977;DHT22;45837;51.076;3.578;2023-12-29T15:04:51;19.50;58.50
59977;DHT22;45837;51.076;3.578;2023-12-29T15:07:17;19.60;58.80
59977;DHT22;45837;51.076;3.578;2023-12-29T15:09:44;19.70;58.70
59977;DHT22;45837;51.076;3.578;2023-12-29T15:12:10;19.80;58.90
59977;DHT22;45837;51.076;3.578;2023-12-29T15:14:35;19.90;58.80
59977;DHT22;45837;51.076;3.578;2023-12-29T15:17:01;20.00;58.90
59977;DHT22;45837;51.076;3.578;2023-12-29T15:19:27;20.00;58.90
59977;DHT22;45837;51.076;3.578;2023-12-29T15:21:53;20.10;58.90
59977;DHT22;45837;51.076;3.578;2023-12-29T15:24:20;20.20;58.70
59977;DHT22;45837;51.076;3.578;2023-12-29T15:26:46;20.30;58.70
59977;DHT22;45837;51.076;3.578;2023-12-29T15:29:12;20.40;58.90
59977;DHT22;45837;51.076;3.578;2023-12-29T15:31:38;20.50;58.90
59977;DHT22;45837;51.076;3.578;2023-12-29T15:34:07;20.50;58.80
59977;DHT22;45837;51.076;3.578;2023-12-29T15:36:32;20.50;59.10
59977;DHT22;45837;51.076;3.578;2023-12-29T15:38:58;20.60;59.00
59977;DHT22;45837;51.076;3.578;2023-12-29T15:41:25;20.50;59.20
59977;DHT22;45837;51.076;3.578;2023-12-29T15:43:51;20.50;59.70
59977;DHT22;45837;51.076;3.578;2023-12-29T15:46:17;20.60;60.30
59977;DHT22;45837;51.076;3.578;2023-12-29T15:48:44;20.60;60.20